createdAt,value
2023-02-24T00:00:20.713Z,6.82
2023-02-24T00:01:21.106Z,6.82
2023-02-24T00:02:20.731Z,6.82
2023-02-24T00:03:20.699Z,6.80
2023-02-24T00:04:20.699Z,6.80
2023-02-24T00:05:20.781Z,6.77
2023-02-24T00:06:20.634Z,6.77
2023-02-24T00:07:20.629Z,6.77
2023-02-24T00:08:20.604Z,6.75
2023-02-24T00:09:20.624Z,6.72
2023-02-24T00:10:20.604Z,6.74
2023-02-24T00:11:20.936Z,6.71
2023-02-24T00:12:20.630Z,6.71
2023-02-24T00:13:20.600Z,6.68
2023-02-24T00:14:20.621Z,6.70
2023-02-24T00:15:20.522Z,6.68
2023-02-24T00:16:20.777Z,6.64
2023-02-24T00:17:20.719Z,6.64
2023-02-24T00:18:20.524Z,6.60
2023-02-24T00:19:20.486Z,6.59
2023-02-24T00:20:20.513Z,6.57
2023-02-24T00:21:20.756Z,6.57
2023-02-24T00:22:20.453Z,6.57
2023-02-24T00:23:20.440Z,6.57
2023-02-24T00:24:20.449Z,6.54
2023-02-24T00:25:20.422Z,6.53
2023-02-24T00:26:20.434Z,6.53
2023-02-24T00:27:20.407Z,6.52
2023-02-24T00:28:20.400Z,6.50
2023-02-24T00:29:20.381Z,6.50
2023-02-24T00:30:20.375Z,6.50
2023-02-24T00:31:20.821Z,6.49
2023-02-24T00:32:20.566Z,6.47
2023-02-24T00:33:20.345Z,6.47
2023-02-24T00:34:20.332Z,6.44
2023-02-24T00:35:20.339Z,6.44
2023-02-24T00:36:20.310Z,6.43
2023-02-24T00:37:20.325Z,6.43
2023-02-24T00:38:20.296Z,6.44
2023-02-24T00:39:20.284Z,6.39
2023-02-24T00:40:20.279Z,6.41
2023-02-24T00:41:20.587Z,6.38
2023-02-24T00:42:20.259Z,6.39
2023-02-24T00:43:20.235Z,6.35
2023-02-24T00:44:20.225Z,6.38
2023-02-24T00:45:20.233Z,6.36
2023-02-24T00:46:20.216Z,6.36
2023-02-24T00:47:20.186Z,6.36
2023-02-24T00:48:20.187Z,6.34
2023-02-24T00:49:20.169Z,6.35
2023-02-24T00:50:20.159Z,6.35
2023-02-24T00:51:20.419Z,6.36
2023-02-24T00:52:20.136Z,6.36
2023-02-24T00:53:20.155Z,6.35
2023-02-24T00:54:20.139Z,6.36
2023-02-24T00:55:20.099Z,6.36
2023-02-24T00:56:20.092Z,6.35
2023-02-24T00:57:20.157Z,6.35
2023-02-24T00:58:20.101Z,6.34
2023-02-24T00:59:20.061Z,6.36
2023-02-24T01:00:20.047Z,6.35
2023-02-24T01:01:20.346Z,6.35
2023-02-24T01:02:20.038Z,6.31
2023-02-24T01:03:20.056Z,6.32
2023-02-24T01:04:20.154Z,6.32
2023-02-24T01:05:20.005Z,6.35
2023-02-24T01:06:20.023Z,6.34
2023-02-24T01:07:19.991Z,6.34
2023-02-24T01:08:19.983Z,6.32
2023-02-24T01:09:19.960Z,6.34
2023-02-24T01:10:19.945Z,6.32
2023-02-24T01:11:20.402Z,6.32
2023-02-24T01:12:19.959Z,6.31
2023-02-24T01:13:19.927Z,6.28
2023-02-24T01:14:19.897Z,6.28
2023-02-24T01:15:19.888Z,6.29
2023-02-24T01:16:19.916Z,6.28
2023-02-24T01:17:19.874Z,6.28
2023-02-24T01:18:19.883Z,6.26
2023-02-24T01:19:20.128Z,6.26
2023-02-24T01:20:19.884Z,6.25
2023-02-24T01:21:20.067Z,6.25
2023-02-24T01:22:19.850Z,6.25
2023-02-24T01:23:19.822Z,6.25
2023-02-24T01:24:19.791Z,6.22
2023-02-24T01:25:19.797Z,6.25
2023-02-24T01:26:19.773Z,6.25
2023-02-24T01:27:19.812Z,6.26
2023-02-24T01:28:19.765Z,6.25
2023-02-24T01:29:19.734Z,6.25
2023-02-24T01:30:19.739Z,6.25
2023-02-24T01:31:20.001Z,6.25
2023-02-24T01:32:20.180Z,6.26
2023-02-24T01:33:19.741Z,6.22
2023-02-24T01:34:19.684Z,6.25
2023-02-24T01:35:19.673Z,6.28
2023-02-24T01:36:19.665Z,6.26
2023-02-24T01:37:19.784Z,6.25
2023-02-24T01:38:19.693Z,6.22
2023-02-24T01:39:19.633Z,6.25
2023-02-24T01:40:19.689Z,6.22
2023-02-24T01:41:19.870Z,6.25
2023-02-24T01:42:19.975Z,6.22
2023-02-24T01:43:19.605Z,6.25
2023-02-24T01:44:19.581Z,6.22
2023-02-24T01:45:19.561Z,6.26
2023-02-24T01:46:19.626Z,6.26
2023-02-24T01:47:19.548Z,6.19
2023-02-24T01:48:19.538Z,6.22
2023-02-24T01:49:19.555Z,6.25
2023-02-24T01:50:19.504Z,6.22
2023-02-24T01:51:19.809Z,6.20
2023-02-24T01:52:19.509Z,6.20
2023-02-24T01:53:19.478Z,6.19
2023-02-24T01:54:19.494Z,6.20
2023-02-24T01:55:19.463Z,6.17
2023-02-24T01:56:19.513Z,6.16
2023-02-24T01:57:19.439Z,6.16
2023-02-24T01:58:19.443Z,6.16
2023-02-24T01:59:19.424Z,6.13
2023-02-24T02:00:19.441Z,6.12
2023-02-24T02:01:19.866Z,6.13
2023-02-24T02:02:19.523Z,6.10
2023-02-24T02:03:19.390Z,6.10
2023-02-24T02:04:19.372Z,6.07
2023-02-24T02:05:19.351Z,6.09
2023-02-24T02:06:19.339Z,6.07
2023-02-24T02:07:19.370Z,6.07
2023-02-24T02:08:19.328Z,6.05
2023-02-24T02:09:19.316Z,6.06
2023-02-24T02:10:19.307Z,6.01
2023-02-24T02:11:19.500Z,6.06
2023-02-24T02:12:19.283Z,6.06
2023-02-24T02:13:19.287Z,6.05
2023-02-24T02:14:19.281Z,6.02
2023-02-24T02:15:19.245Z,6.02
2023-02-24T02:16:19.290Z,6.02
2023-02-24T02:17:19.213Z,6.01
2023-02-24T02:18:19.221Z,6.01
2023-02-24T02:19:19.205Z,5.99
2023-02-24T02:20:19.186Z,5.98
2023-02-24T02:21:19.590Z,6.01
2023-02-24T02:22:19.187Z,5.99
2023-02-24T02:23:19.156Z,5.98
2023-02-24T02:24:19.164Z,5.97
2023-02-24T02:25:19.143Z,5.97
2023-02-24T02:26:19.127Z,5.95
2023-02-24T02:27:19.112Z,5.98
2023-02-24T02:28:19.109Z,5.95
2023-02-24T02:29:19.090Z,5.95
2023-02-24T02:30:19.082Z,5.98
2023-02-24T02:31:19.694Z,5.97
2023-02-24T02:32:19.130Z,5.95
2023-02-24T02:33:19.056Z,5.94
2023-02-24T02:34:19.049Z,5.94
2023-02-24T02:35:19.047Z,5.94
2023-02-24T02:36:19.030Z,5.92
2023-02-24T02:37:19.007Z,5.92
2023-02-24T02:38:19.001Z,5.91
2023-02-24T02:39:18.990Z,5.90
2023-02-24T02:40:18.980Z,5.90
2023-02-24T02:41:19.450Z,5.91
2023-02-24T02:42:18.949Z,5.91
2023-02-24T02:43:18.938Z,5.88
2023-02-24T02:44:18.940Z,5.87
2023-02-24T02:45:18.922Z,5.87
2023-02-24T02:46:18.927Z,5.87
2023-02-24T02:47:18.917Z,5.88
2023-02-24T02:48:18.890Z,5.81
2023-02-24T02:49:18.878Z,5.83
2023-02-24T02:50:18.881Z,5.81
2023-02-24T02:51:19.072Z,5.79
2023-02-24T02:52:18.839Z,5.80
2023-02-24T02:53:18.834Z,5.77
2023-02-24T02:54:18.834Z,5.76
2023-02-24T02:55:18.826Z,5.73
2023-02-24T02:56:18.814Z,5.70
2023-02-24T02:57:18.806Z,5.73
2023-02-24T02:58:18.795Z,5.70
2023-02-24T02:59:18.835Z,5.72
2023-02-24T03:00:18.751Z,5.70
2023-02-24T03:01:19.206Z,5.65
2023-02-24T03:02:18.723Z,5.67
2023-02-24T03:03:18.743Z,5.65
2023-02-24T03:04:18.826Z,5.65
2023-02-24T03:05:18.703Z,5.65
2023-02-24T03:06:18.689Z,5.59
2023-02-24T03:07:18.680Z,5.61
2023-02-24T03:08:18.701Z,5.61
2023-02-24T03:09:18.664Z,5.58
2023-02-24T03:10:18.675Z,5.54
2023-02-24T03:11:18.961Z,5.56
2023-02-24T03:12:18.624Z,5.54
2023-02-24T03:13:18.616Z,5.52
2023-02-24T03:14:18.598Z,5.51
2023-02-24T03:15:18.600Z,5.51
2023-02-24T03:16:18.657Z,5.47
2023-02-24T03:17:18.588Z,5.46
2023-02-24T03:18:18.569Z,5.46
2023-02-24T03:19:18.546Z,5.44
2023-02-24T03:20:18.580Z,5.44
2023-02-24T03:21:18.642Z,5.41
2023-02-24T03:22:18.520Z,5.38
2023-02-24T03:23:18.512Z,5.38
2023-02-24T03:24:18.489Z,5.37
2023-02-24T03:25:18.496Z,5.37
2023-02-24T03:26:18.469Z,5.34
2023-02-24T03:27:18.477Z,5.33
2023-02-24T03:28:18.463Z,5.34
2023-02-24T03:29:18.446Z,5.31
2023-02-24T03:30:18.439Z,5.28
2023-02-24T03:31:18.787Z,5.31
2023-02-24T03:32:18.524Z,5.25
2023-02-24T03:33:18.398Z,5.26
2023-02-24T03:34:18.457Z,5.23
2023-02-24T03:35:18.408Z,5.28
2023-02-24T03:36:18.359Z,5.22
2023-02-24T03:37:18.358Z,5.22
2023-02-24T03:38:18.361Z,5.23
2023-02-24T03:39:18.380Z,5.18
2023-02-24T03:40:18.382Z,5.18
2023-02-24T03:41:18.647Z,5.19
2023-02-24T03:42:18.318Z,5.15
2023-02-24T03:43:18.300Z,5.16
2023-02-24T03:44:18.287Z,5.12
2023-02-24T03:45:18.283Z,5.10
2023-02-24T03:46:18.329Z,5.13
2023-02-24T03:47:18.247Z,5.08
2023-02-24T03:48:18.236Z,5.07
2023-02-24T03:49:18.228Z,5.10
2023-02-24T03:50:18.232Z,5.07
2023-02-24T03:51:18.505Z,5.08
2023-02-24T03:52:18.187Z,5.05
2023-02-24T03:53:18.184Z,5.07
2023-02-24T03:54:18.177Z,5.04
2023-02-24T03:55:18.211Z,5.01
2023-02-24T03:56:18.161Z,5.02
2023-02-24T03:57:18.147Z,5.00
2023-02-24T03:58:18.124Z,5.01
2023-02-24T03:59:18.122Z,5.00
2023-02-24T04:00:18.118Z,4.98
2023-02-24T04:01:18.157Z,4.95
2023-02-24T04:02:18.130Z,4.98
2023-02-24T04:03:18.071Z,4.94
2023-02-24T04:04:18.122Z,4.94
2023-02-24T04:05:18.063Z,4.94
2023-02-24T04:06:18.036Z,4.92
2023-02-24T04:07:18.033Z,4.94
2023-02-24T04:08:18.015Z,4.86
2023-02-24T04:09:18.029Z,4.92
2023-02-24T04:10:18.005Z,4.90
2023-02-24T04:11:18.228Z,4.87
2023-02-24T04:12:18.037Z,4.82
2023-02-24T04:13:17.997Z,4.83
2023-02-24T04:14:17.960Z,4.84
2023-02-24T04:15:17.968Z,4.82
2023-02-24T04:16:17.974Z,4.78
2023-02-24T04:17:17.920Z,4.79
2023-02-24T04:18:17.928Z,4.78
2023-02-24T04:19:17.913Z,4.78
2023-02-24T04:20:17.883Z,4.75
2023-02-24T04:21:18.535Z,4.75
2023-02-24T04:22:17.873Z,4.71
2023-02-24T04:23:17.862Z,4.74
2023-02-24T04:24:17.855Z,4.71
2023-02-24T04:25:17.841Z,4.71
2023-02-24T04:26:17.860Z,4.70
2023-02-24T04:27:17.817Z,4.67
2023-02-24T04:28:17.809Z,4.67
2023-02-24T04:29:17.823Z,4.66
2023-02-24T04:30:17.808Z,4.64
2023-02-24T04:31:17.935Z,4.63
2023-02-24T04:32:17.923Z,4.61
2023-02-24T04:33:17.840Z,4.61
2023-02-24T04:34:17.748Z,4.60
2023-02-24T04:35:17.733Z,4.57
2023-02-24T04:36:17.733Z,4.56
2023-02-24T04:37:17.710Z,4.58
2023-02-24T04:38:17.754Z,4.53
2023-02-24T04:39:17.699Z,4.57
2023-02-24T04:40:17.709Z,4.49
2023-02-24T04:41:17.725Z,4.49
2023-02-24T04:42:17.655Z,4.46
2023-02-24T04:43:17.701Z,4.48
2023-02-24T04:44:17.632Z,4.45
2023-02-24T04:45:17.640Z,4.46
2023-02-24T04:46:17.680Z,4.43
2023-02-24T04:47:17.616Z,4.43
2023-02-24T04:48:17.750Z,4.42
2023-02-24T04:49:17.598Z,4.40
2023-02-24T04:50:17.578Z,4.40
2023-02-24T04:51:17.580Z,4.39
2023-02-24T04:52:17.558Z,4.39
2023-02-24T04:53:17.613Z,4.40
2023-02-24T04:54:17.682Z,4.38
2023-02-24T04:55:17.565Z,4.36
2023-02-24T04:56:17.549Z,4.32
2023-02-24T04:57:17.509Z,4.32
2023-02-24T04:58:17.590Z,4.31
2023-02-24T04:59:17.486Z,4.32
2023-02-24T05:00:17.566Z,4.28
2023-02-24T05:01:17.461Z,4.27
2023-02-24T05:02:19.970Z,4.30
2023-02-24T05:03:17.488Z,4.27
2023-02-24T05:04:17.492Z,4.25
2023-02-24T05:05:17.442Z,4.25
2023-02-24T05:06:17.456Z,4.24
2023-02-24T05:07:17.429Z,4.22
2023-02-24T05:08:17.391Z,4.24
2023-02-24T05:09:17.381Z,4.21
2023-02-24T05:10:17.365Z,4.22
2023-02-24T05:11:17.372Z,4.20
2023-02-24T05:12:17.354Z,4.20
2023-02-24T05:13:17.338Z,4.20
2023-02-24T05:14:17.342Z,4.18
2023-02-24T05:15:17.327Z,4.20
2023-02-24T05:16:17.508Z,4.14
2023-02-24T05:17:17.324Z,4.14
2023-02-24T05:18:17.426Z,4.14
2023-02-24T05:19:17.290Z,4.16
2023-02-24T05:20:17.267Z,4.13
2023-02-24T05:21:17.270Z,4.12
2023-02-24T05:22:17.239Z,4.12
2023-02-24T05:23:17.229Z,4.13
2023-02-24T05:24:17.233Z,4.13
2023-02-24T05:25:17.223Z,4.12
2023-02-24T05:26:17.395Z,4.13
2023-02-24T05:27:17.202Z,4.16
2023-02-24T05:28:17.180Z,4.14
2023-02-24T05:29:17.168Z,4.13
2023-02-24T05:30:17.170Z,4.16
2023-02-24T05:31:17.323Z,4.16
2023-02-24T05:32:17.248Z,4.12
2023-02-24T05:33:17.141Z,4.14
2023-02-24T05:34:17.176Z,4.14
2023-02-24T05:35:17.159Z,4.13
2023-02-24T05:36:17.172Z,4.14
2023-02-24T05:37:17.084Z,4.16
2023-02-24T05:38:17.072Z,4.12
2023-02-24T05:39:17.067Z,4.16
2023-02-24T05:40:17.057Z,4.14
2023-02-24T05:41:17.130Z,4.18
2023-02-24T05:42:17.038Z,4.18
2023-02-24T05:43:17.045Z,4.13
2023-02-24T05:44:17.005Z,4.18
2023-02-24T05:45:17.017Z,4.14
2023-02-24T05:46:17.048Z,4.14
2023-02-24T05:47:17.064Z,4.16
2023-02-24T05:48:16.973Z,4.20
2023-02-24T05:49:16.989Z,4.14
2023-02-24T05:50:16.984Z,4.16
2023-02-24T05:51:16.957Z,4.20
2023-02-24T05:52:16.929Z,4.13
2023-02-24T05:53:16.893Z,4.18
2023-02-24T05:54:17.072Z,4.18
2023-02-24T05:55:16.851Z,4.18
2023-02-24T05:56:16.965Z,4.18
2023-02-24T05:57:16.832Z,4.14
2023-02-24T05:58:16.802Z,4.14
2023-02-24T05:59:16.862Z,4.18
2023-02-24T06:00:16.818Z,4.16
2023-02-24T06:01:16.918Z,4.20
2023-02-24T06:02:16.850Z,4.14
2023-02-24T06:03:16.869Z,4.14
2023-02-24T06:04:16.744Z,4.20
2023-02-24T06:05:18.009Z,4.18
2023-02-24T06:06:16.720Z,4.16
2023-02-24T06:07:16.732Z,4.14
2023-02-24T06:08:16.688Z,4.13
2023-02-24T06:09:16.686Z,4.14
2023-02-24T06:10:16.672Z,4.18
2023-02-24T06:11:16.671Z,4.16
2023-02-24T06:12:16.658Z,4.18
2023-02-24T06:13:16.649Z,4.14
2023-02-24T06:14:16.843Z,4.20
2023-02-24T06:15:16.630Z,4.20
2023-02-24T06:16:16.658Z,4.18
2023-02-24T06:17:16.618Z,4.18
2023-02-24T06:18:16.587Z,4.20
2023-02-24T06:19:17.660Z,4.18
2023-02-24T06:20:16.578Z,4.16
2023-02-24T06:21:16.587Z,4.21
2023-02-24T06:22:16.570Z,4.20
2023-02-24T06:23:16.542Z,4.21
2023-02-24T06:24:16.517Z,4.20
2023-02-24T06:25:16.564Z,4.20
2023-02-24T06:26:16.498Z,4.18
2023-02-24T06:27:16.539Z,4.22
2023-02-24T06:28:16.501Z,4.21
2023-02-24T06:29:16.611Z,4.24
2023-02-24T06:30:16.472Z,4.22
2023-02-24T06:31:16.457Z,4.22
2023-02-24T06:32:16.628Z,4.21
2023-02-24T06:33:16.449Z,4.20
2023-02-24T06:34:16.428Z,4.21
2023-02-24T06:35:16.456Z,4.20
2023-02-24T06:36:16.427Z,4.22
2023-02-24T06:37:16.504Z,4.22
2023-02-24T06:38:16.388Z,4.22
2023-02-24T06:39:16.402Z,4.22
2023-02-24T06:40:16.465Z,4.20
2023-02-24T06:41:16.460Z,4.22
2023-02-24T06:42:16.418Z,4.24
2023-02-24T06:43:16.407Z,4.21
2023-02-24T06:44:16.309Z,4.24
2023-02-24T06:45:16.428Z,4.24
2023-02-24T06:46:16.460Z,4.25
2023-02-24T06:47:16.350Z,4.24
2023-02-24T06:48:16.278Z,4.27
2023-02-24T06:49:16.277Z,4.27
2023-02-24T06:50:16.259Z,4.25
2023-02-24T06:51:16.255Z,4.30
2023-02-24T06:52:16.237Z,4.31
2023-02-24T06:53:16.229Z,4.30
2023-02-24T06:54:16.232Z,4.30
2023-02-24T06:55:16.199Z,4.31
2023-02-24T06:56:16.229Z,4.30
2023-02-24T06:57:16.286Z,4.32
2023-02-24T06:58:16.169Z,4.32
2023-02-24T06:59:16.185Z,4.32
2023-02-24T07:00:16.139Z,4.34
2023-02-24T07:01:16.228Z,4.32
2023-02-24T07:02:16.144Z,4.36
2023-02-24T07:03:16.166Z,4.36
2023-02-24T07:04:16.185Z,4.38
2023-02-24T07:05:16.113Z,4.39
2023-02-24T07:06:16.096Z,4.36
2023-02-24T07:07:16.096Z,4.40
2023-02-24T07:08:16.107Z,4.40
2023-02-24T07:09:16.102Z,4.40
2023-02-24T07:10:16.052Z,4.38
2023-02-24T07:11:16.068Z,4.40
2023-02-24T07:12:16.047Z,4.42
2023-02-24T07:13:16.025Z,4.43
2023-02-24T07:14:16.280Z,4.45
2023-02-24T07:15:15.989Z,4.48
2023-02-24T07:16:16.070Z,4.46
2023-02-24T07:17:16.016Z,4.49
2023-02-24T07:18:15.952Z,4.50
2023-02-24T07:19:16.004Z,4.50
2023-02-24T07:20:15.955Z,4.56
2023-02-24T07:21:15.954Z,4.53
2023-02-24T07:22:16.236Z,4.56
2023-02-24T07:23:15.938Z,4.57
2023-02-24T07:24:15.902Z,4.53
2023-02-24T07:25:15.956Z,4.56
2023-02-24T07:26:15.951Z,4.58
2023-02-24T07:27:15.892Z,4.60
2023-02-24T07:28:15.862Z,4.58
2023-02-24T07:29:15.862Z,4.60
2023-02-24T07:30:15.902Z,4.61
2023-02-24T07:31:15.882Z,4.61
2023-02-24T07:32:15.991Z,4.64
2023-02-24T07:33:15.846Z,4.64
2023-02-24T07:34:15.797Z,4.66
2023-02-24T07:35:15.815Z,4.64
2023-02-24T07:36:15.776Z,4.64
2023-02-24T07:37:15.753Z,4.66
2023-02-24T07:38:15.771Z,4.64
2023-02-24T07:39:15.770Z,4.66
2023-02-24T07:40:15.757Z,4.66
2023-02-24T07:41:15.766Z,4.66
2023-02-24T07:42:15.763Z,4.64
2023-02-24T07:43:15.760Z,4.66
2023-02-24T07:44:15.707Z,4.66
2023-02-24T07:45:15.772Z,4.64
2023-02-24T07:46:15.719Z,4.68
2023-02-24T07:47:15.897Z,4.68
2023-02-24T07:48:15.663Z,4.70
2023-02-24T07:49:15.638Z,4.70
2023-02-24T07:50:15.623Z,4.70
2023-02-24T07:51:15.629Z,4.75
2023-02-24T07:52:15.616Z,4.75
2023-02-24T07:53:15.637Z,4.78
2023-02-24T07:54:15.665Z,4.82
2023-02-24T07:55:15.564Z,4.84
2023-02-24T07:56:15.544Z,4.83
2023-02-24T07:57:15.567Z,4.84
2023-02-24T07:58:15.551Z,4.87
2023-02-24T07:59:15.533Z,4.92
2023-02-24T08:00:15.504Z,4.90
2023-02-24T08:01:15.490Z,4.97
2023-02-24T08:02:16.604Z,4.94
2023-02-24T08:03:15.483Z,4.97
2023-02-24T08:04:15.472Z,4.97
2023-02-24T08:05:15.525Z,5.00
2023-02-24T08:06:15.441Z,5.00
2023-02-24T08:07:15.425Z,5.01
2023-02-24T08:08:15.430Z,5.02
2023-02-24T08:09:15.447Z,5.04
2023-02-24T08:10:15.441Z,5.04
2023-02-24T08:11:15.447Z,5.05
2023-02-24T08:12:15.383Z,5.08
2023-02-24T08:13:15.371Z,5.10
2023-02-24T08:14:15.538Z,5.12
2023-02-24T08:15:15.335Z,5.15
2023-02-24T08:16:15.424Z,5.13
2023-02-24T08:17:15.312Z,5.18
2023-02-24T08:18:15.319Z,5.20
2023-02-24T08:19:15.301Z,5.19
2023-02-24T08:20:15.389Z,5.20
2023-02-24T08:21:15.277Z,5.25
2023-02-24T08:22:15.269Z,5.25
2023-02-24T08:23:15.250Z,5.25
2023-02-24T08:24:15.248Z,5.26
2023-02-24T08:25:15.231Z,5.28
2023-02-24T08:26:15.260Z,5.26
2023-02-24T08:27:15.271Z,5.29
2023-02-24T08:28:15.205Z,5.26
2023-02-24T08:29:15.379Z,5.28
2023-02-24T08:30:15.240Z,5.33
2023-02-24T08:31:15.280Z,5.33
2023-02-24T08:32:15.286Z,5.29
2023-02-24T08:33:15.142Z,5.33
2023-02-24T08:34:15.160Z,5.33
2023-02-24T08:35:15.371Z,5.37
2023-02-24T08:36:15.119Z,5.38
2023-02-24T08:37:15.108Z,5.40
2023-02-24T08:38:15.105Z,5.40
2023-02-24T08:39:15.093Z,5.40
2023-02-24T08:40:15.069Z,5.44
2023-02-24T08:41:15.062Z,5.46
2023-02-24T08:42:15.110Z,5.47
2023-02-24T08:43:15.044Z,5.49
2023-02-24T08:44:15.048Z,5.54
2023-02-24T08:45:15.059Z,5.55
2023-02-24T08:46:15.088Z,5.58
2023-02-24T08:47:15.001Z,5.59
2023-02-24T08:48:15.000Z,5.61
2023-02-24T08:49:15.011Z,5.64
2023-02-24T08:50:14.971Z,5.67
2023-02-24T08:51:15.010Z,5.65
2023-02-24T08:52:14.974Z,5.65
2023-02-24T08:53:14.947Z,5.69
2023-02-24T08:54:14.944Z,5.70
2023-02-24T08:55:14.962Z,5.72
2023-02-24T08:56:14.906Z,5.73
2023-02-24T08:57:14.906Z,5.74
2023-02-24T08:58:14.912Z,5.74
2023-02-24T08:59:14.927Z,5.76
2023-02-24T09:00:14.862Z,5.77
2023-02-24T09:01:14.871Z,5.76
2023-02-24T09:02:14.840Z,5.80
2023-02-24T09:03:14.842Z,5.80
2023-02-24T09:04:14.892Z,5.80
2023-02-24T09:05:14.888Z,5.84
2023-02-24T09:06:14.804Z,5.87
2023-02-24T09:07:14.789Z,5.84
2023-02-24T09:08:14.780Z,5.88
2023-02-24T09:09:14.803Z,5.92
2023-02-24T09:10:14.823Z,5.91
2023-02-24T09:11:14.743Z,5.90
2023-02-24T09:12:14.757Z,5.91
2023-02-24T09:13:14.723Z,5.90
2023-02-24T09:14:26.177Z,5.91
2023-02-24T09:15:15.796Z,5.92
2023-02-24T09:16:14.755Z,5.92
2023-02-24T09:17:14.681Z,5.92
2023-02-24T09:18:14.691Z,5.92
2023-02-24T09:19:14.673Z,5.95
2023-02-24T09:20:14.970Z,5.92
2023-02-24T09:21:14.631Z,5.94
2023-02-24T09:22:21.079Z,5.92
2023-02-24T09:23:15.621Z,5.94
2023-02-24T09:24:16.854Z,5.94
2023-02-24T09:25:14.677Z,5.91
2023-02-24T09:26:14.590Z,5.90
2023-02-24T09:27:14.585Z,5.90
2023-02-24T09:28:14.623Z,5.88
2023-02-24T09:29:14.566Z,5.92
2023-02-24T09:30:14.612Z,5.87
2023-02-24T09:31:14.573Z,5.90
2023-02-24T09:32:14.675Z,5.91
2023-02-24T09:33:14.629Z,5.92
2023-02-24T09:34:14.527Z,5.90
2023-02-24T09:35:14.518Z,5.91
2023-02-24T09:36:14.479Z,5.91
2023-02-24T09:37:14.464Z,5.94
2023-02-24T09:38:14.456Z,5.95
2023-02-24T09:39:14.485Z,5.95
2023-02-24T09:40:14.436Z,5.98
2023-02-24T09:41:18.915Z,6.01
2023-02-24T09:42:14.421Z,5.99
2023-02-24T09:43:14.401Z,5.99
2023-02-24T09:44:14.387Z,5.99
2023-02-24T09:45:14.396Z,6.02
2023-02-24T09:46:14.985Z,6.07
2023-02-24T09:47:14.372Z,6.10
2023-02-24T09:48:16.655Z,6.15
2023-02-24T09:49:14.367Z,6.20
2023-02-24T09:50:14.453Z,6.20
2023-02-24T09:51:14.317Z,6.25
2023-02-24T09:52:14.315Z,6.26
2023-02-24T09:53:14.325Z,6.31
2023-02-24T09:54:14.313Z,6.34
2023-02-24T09:55:14.284Z,6.38
2023-02-24T09:56:14.264Z,6.44
2023-02-24T09:57:14.276Z,6.47
2023-02-24T09:58:14.248Z,6.52
2023-02-24T09:59:14.236Z,6.57
2023-02-24T10:00:14.264Z,6.60
2023-02-24T10:01:14.282Z,6.62
2023-02-24T10:02:14.226Z,6.67
2023-02-24T10:03:14.185Z,6.68
2023-02-24T10:04:20.781Z,6.72
2023-02-24T10:05:15.184Z,6.75
2023-02-24T10:06:14.167Z,6.78
2023-02-24T10:07:14.137Z,6.80
2023-02-24T10:08:14.196Z,6.83
2023-02-24T10:09:14.135Z,6.86
2023-02-24T10:10:14.144Z,6.86
2023-02-24T10:11:14.124Z,6.89
2023-02-24T10:12:14.120Z,6.90
2023-02-24T10:13:14.103Z,6.93
2023-02-24T10:14:14.085Z,6.93
2023-02-24T10:15:14.086Z,6.96
2023-02-24T10:16:14.155Z,6.95
2023-02-24T10:17:14.044Z,6.96
2023-02-24T10:18:14.056Z,6.96
2023-02-24T10:19:14.038Z,7.00
2023-02-24T10:20:14.137Z,6.96
2023-02-24T10:21:14.083Z,6.97
2023-02-24T10:22:13.996Z,6.96
2023-02-24T10:23:13.982Z,7.01
2023-02-24T10:24:13.969Z,7.01
2023-02-24T10:25:14.103Z,7.04
2023-02-24T10:26:13.932Z,7.05
2023-02-24T10:27:17.408Z,7.05
2023-02-24T10:28:13.914Z,7.05
2023-02-24T10:29:13.910Z,7.05
2023-02-24T10:30:13.913Z,7.03
2023-02-24T10:31:14.101Z,7.03
2023-02-24T10:32:14.124Z,7.04
2023-02-24T10:33:13.925Z,7.08
2023-02-24T10:34:13.885Z,7.05
2023-02-24T10:35:13.869Z,7.08
2023-02-24T10:36:13.831Z,7.11
2023-02-24T10:37:26.073Z,7.14
2023-02-24T10:38:14.853Z,7.15
2023-02-24T10:39:13.839Z,7.22
2023-02-24T10:40:13.892Z,7.29
2023-02-24T10:41:13.779Z,7.32
2023-02-24T10:42:13.807Z,7.39
2023-02-24T10:43:13.846Z,7.46
2023-02-24T10:44:13.778Z,7.53
2023-02-24T10:45:17.281Z,7.66
2023-02-24T10:46:13.781Z,7.74
2023-02-24T10:47:13.708Z,7.83
2023-02-24T10:48:15.515Z,7.95
2023-02-24T10:49:13.712Z,8.09
2023-02-24T10:50:13.700Z,8.13
2023-02-24T10:51:13.662Z,8.17
2023-02-24T10:52:13.717Z,8.21
2023-02-24T10:53:13.660Z,8.23
2023-02-24T10:54:13.659Z,8.24
2023-02-24T10:55:13.621Z,8.21
2023-02-24T10:56:13.707Z,8.17
2023-02-24T10:57:13.611Z,8.17
2023-02-24T10:58:13.621Z,8.09
2023-02-24T10:59:13.834Z,8.08
2023-02-24T11:00:13.672Z,8.02
2023-02-24T11:01:13.747Z,8.02
2023-02-24T11:02:13.580Z,7.99
2023-02-24T11:03:19.457Z,8.01
2023-02-24T11:04:14.543Z,7.96
2023-02-24T11:05:13.519Z,7.95
2023-02-24T11:06:13.517Z,7.88
2023-02-24T11:07:13.495Z,7.83
2023-02-24T11:08:13.514Z,7.77
2023-02-24T11:09:13.467Z,7.72
2023-02-24T11:10:13.469Z,7.69
2023-02-24T11:11:13.501Z,7.67
2023-02-24T11:12:13.455Z,7.64
2023-02-24T11:13:13.431Z,7.62
2023-02-24T11:14:13.438Z,7.61
2023-02-24T11:15:13.438Z,7.59
2023-02-24T11:16:13.479Z,7.55
2023-02-24T11:17:13.388Z,7.56
2023-02-24T11:18:13.375Z,7.53
2023-02-24T11:19:13.358Z,7.48
2023-02-24T11:20:13.385Z,7.47
2023-02-24T11:21:13.345Z,7.44
2023-02-24T11:22:13.384Z,7.41
2023-02-24T11:23:13.314Z,7.37
2023-02-24T11:24:13.312Z,7.36
2023-02-24T11:25:13.343Z,7.31
2023-02-24T11:26:13.292Z,7.29
2023-02-24T11:27:13.301Z,7.28
2023-02-24T11:28:13.261Z,7.25
2023-02-24T11:29:13.259Z,7.23
2023-02-24T11:30:13.268Z,7.21
2023-02-24T11:31:13.385Z,7.15
2023-02-24T11:32:15.365Z,7.18
2023-02-24T11:33:13.205Z,7.19
2023-02-24T11:34:13.192Z,7.18
2023-02-24T11:35:13.697Z,7.15
2023-02-24T11:36:13.181Z,7.14
2023-02-24T11:37:13.165Z,7.14
2023-02-24T11:38:13.152Z,7.14
2023-02-24T11:39:20.092Z,7.18
2023-02-24T11:40:14.732Z,7.15
2023-02-24T11:41:13.635Z,7.15
2023-02-24T11:42:13.133Z,7.14
2023-02-24T11:43:13.370Z,7.14
2023-02-24T11:44:15.072Z,7.14
2023-02-24T11:45:13.103Z,7.15
2023-02-24T11:46:13.072Z,7.10
2023-02-24T11:47:13.058Z,7.10
2023-02-24T11:48:13.040Z,7.07
2023-02-24T11:49:13.033Z,7.05
2023-02-24T11:50:13.036Z,7.04
2023-02-24T11:51:13.041Z,7.01
2023-02-24T11:52:13.000Z,7.03
2023-02-24T11:53:13.011Z,7.01
2023-02-24T11:54:13.009Z,7.03
2023-02-24T11:55:12.967Z,7.00
2023-02-24T11:56:13.091Z,7.00
2023-02-24T11:57:12.970Z,7.03
2023-02-24T11:58:12.964Z,6.96
2023-02-24T11:59:12.924Z,6.96
2023-02-24T12:00:12.911Z,6.97
2023-02-24T12:01:12.914Z,7.00
2023-02-24T12:02:12.971Z,6.97
2023-02-24T12:03:13.123Z,6.96
2023-02-24T12:04:13.077Z,6.97
2023-02-24T12:05:12.945Z,6.96
2023-02-24T12:06:13.006Z,7.01
2023-02-24T12:07:12.952Z,7.00
2023-02-24T12:08:12.869Z,6.96
2023-02-24T12:09:12.890Z,6.97
2023-02-24T12:10:17.278Z,6.92
2023-02-24T12:11:12.846Z,6.90
2023-02-24T12:12:13.736Z,6.87
2023-02-24T12:13:12.821Z,6.89
2023-02-24T12:14:12.792Z,6.87
2023-02-24T12:15:12.807Z,6.90
2023-02-24T12:16:12.795Z,6.87
2023-02-24T12:17:12.778Z,6.87
2023-02-24T12:18:13.828Z,6.85
2023-02-24T12:19:12.775Z,6.85
2023-02-24T12:20:12.733Z,6.85
2023-02-24T12:21:12.884Z,6.85
2023-02-24T12:22:12.728Z,6.82
2023-02-24T12:23:12.711Z,6.85
2023-02-24T12:24:12.702Z,6.83
2023-02-24T12:25:12.684Z,6.78
2023-02-24T12:26:12.678Z,6.74
2023-02-24T12:27:12.924Z,6.75
2023-02-24T12:28:12.661Z,6.75
2023-02-24T12:29:12.622Z,6.75
2023-02-24T12:30:12.647Z,6.75
2023-02-24T12:31:12.746Z,6.77
2023-02-24T12:32:12.744Z,6.71
2023-02-24T12:33:12.611Z,6.72
2023-02-24T12:34:12.557Z,6.72
2023-02-24T12:35:12.566Z,6.70
2023-02-24T12:36:12.554Z,6.72
2023-02-24T12:37:12.552Z,6.71
2023-02-24T12:38:12.552Z,6.67
2023-02-24T12:39:12.569Z,6.67
2023-02-24T12:40:12.600Z,6.68
2023-02-24T12:41:12.504Z,6.67
2023-02-24T12:42:12.503Z,6.64
2023-02-24T12:43:12.496Z,6.64
2023-02-24T12:44:12.513Z,6.65
2023-02-24T12:45:12.448Z,6.64
2023-02-24T12:46:12.449Z,6.64
2023-02-24T12:47:12.450Z,6.60
2023-02-24T12:48:12.446Z,6.60
2023-02-24T12:49:12.435Z,6.57
2023-02-24T12:50:12.399Z,6.56
2023-02-24T12:51:12.413Z,6.53
2023-02-24T12:52:12.417Z,6.52
2023-02-24T12:53:12.374Z,6.52
2023-02-24T12:54:12.380Z,6.54
2023-02-24T12:55:12.369Z,6.52
2023-02-24T12:56:12.362Z,6.54
2023-02-24T12:57:12.355Z,6.57
2023-02-24T12:58:12.320Z,6.56
2023-02-24T12:59:12.377Z,6.59
2023-02-24T13:00:12.366Z,6.60
2023-02-24T13:01:12.412Z,6.64
2023-02-24T13:02:12.284Z,6.62
2023-02-24T13:03:12.278Z,6.60
2023-02-24T13:04:12.240Z,6.56
2023-02-24T13:05:12.241Z,6.59
2023-02-24T13:06:12.231Z,6.60
2023-02-24T13:07:12.269Z,6.59
2023-02-24T13:08:12.198Z,6.59
2023-02-24T13:09:12.186Z,6.60
2023-02-24T13:10:12.175Z,6.57
2023-02-24T13:11:13.219Z,6.60
2023-02-24T13:12:12.116Z,6.59
2023-02-24T13:13:12.130Z,6.57
2023-02-24T13:14:12.096Z,6.56
2023-02-24T13:15:12.098Z,6.59
2023-02-24T13:16:12.108Z,6.54
2023-02-24T13:17:12.114Z,6.56
2023-02-24T13:18:12.047Z,6.54